sensor_id;sensor_type;location;lat;lon;timestamp;pressure;altitude;pressure_sealevel;temperature;humidity
65546;BME280;52177;55.968;37.498;2022-11-15T00:00:01;100383.38;;;-0.20;50.10
65546;BME280;52177;55.968;37.498;2022-11-15T00:00:32;100383.47;;;-0.22;50.01
65546;BME280;52177;55.968;37.498;2022-11-15T00:01:06;100382.63;;;-0.22;50.15
65546;BME280;52177;55.968;37.498;2022-11-15T00:01:37;100385.25;;;-0.22;50.27
65546;BME280;52177;55.968;37.498;2022-11-15T00:02:07;100379.53;;;-0.29;50.17
65546;BME280;52177;55.968;37.498;2022-11-15T00:02:37;100385.59;;;-0.28;50.40
65546;BME280;52177;55.968;37.498;2022-11-15T00:03:08;100380.66;;;-0.33;49.85
65546;BME280;52177;55.968;37.498;2022-11-15T00:03:38;100382.59;;;-0.36;50.14
65546;BME280;52177;55.968;37.498;2022-11-15T00:04:09;100371.38;;;-0.38;50.27
65546;BME280;52177;55.968;37.498;2022-11-15T00:04:40;100380.94;;;-0.37;50.24
65546;BME280;52177;55.968;37.498;2022-11-15T00:05:10;100379.97;;;-0.36;50.07
65546;BME280;52177;55.968;37.498;2022-11-15T00:05:41;100383.63;;;-0.39;50.23
65546;BME280;52177;55.968;37.498;2022-11-15T00:06:12;100388.78;;;-0.37;50.26
65546;BME280;52177;55.968;37.498;2022-11-15T00:06:42;100376.53;;;-0.37;50.15
65546;BME280;52177;55.968;37.498;2022-11-15T00:07:12;100379.97;;;-0.36;50.49
65546;BME280;52177;55.968;37.498;2022-11-15T00:07:43;100381.66;;;-0.35;50.20
65546;BME280;52177;55.968;37.498;2022-11-15T00:08:13;100374.75;;;-0.36;50.17
65546;BME280;52177;55.968;37.498;2022-11-15T00:08:43;100379.97;;;-0.36;50.02
65546;BME280;52177;55.968;37.498;2022-11-15T00:09:14;100378.31;;;-0.37;49.95
65546;BME280;52177;55.968;37.498;2022-11-15T00:09:44;100372.31;;;-0.39;50.00
65546;BME280;52177;55.968;37.498;2022-11-15T00:10:15;100371.38;;;-0.38;50.28
65546;BME280;52177;55.968;37.498;2022-11-15T00:10:59;100370.44;;;-0.37;50.29
65546;BME280;52177;55.968;37.498;2022-11-15T00:11:30;100370.53;;;-0.39;50.27
65546;BME280;52177;55.968;37.498;2022-11-15T00:12:00;100371.44;;;-0.40;50.53
65546;BME280;52177;55.968;37.498;2022-11-15T00:12:31;100368.00;;;-0.40;50.50
65546;BME280;52177;55.968;37.498;2022-11-15T00:13:05;100366.22;;;-0.40;50.63
65546;BME280;52177;55.968;37.498;2022-11-15T00:13:36;100365.28;;;-0.39;50.58
65546;BME280;52177;55.968;37.498;2022-11-15T00:14:06;100366.13;;;-0.38;50.63
65546;BME280;52177;55.968;37.498;2022-11-15T00:14:36;100359.03;;;-0.36;50.62
65546;BME280;52177;55.968;37.498;2022-11-15T00:15:07;100360.81;;;-0.37;50.50
65546;BME280;52177;55.968;37.498;2022-11-15T00:15:39;100363.44;;;-0.37;50.22
65546;BME280;52177;55.968;37.498;2022-11-15T00:16:09;100371.28;;;-0.37;50.36
65546;BME280;52177;55.968;37.498;2022-11-15T00:16:40;100363.44;;;-0.37;50.40
65546;BME280;52177;55.968;37.498;2022-11-15T00:17:11;100362.59;;;-0.37;50.36
65546;BME280;52177;55.968;37.498;2022-11-15T00:17:41;100363.50;;;-0.38;50.27
65546;BME280;52177;55.968;37.498;2022-11-15T00:18:12;100363.69;;;-0.41;50.05
65546;BME280;52177;55.968;37.498;2022-11-15T00:18:43;100356.75;;;-0.43;50.18
65546;BME280;52177;55.968;37.498;2022-11-15T00:19:13;100367.16;;;-0.41;50.37
65546;BME280;52177;55.968;37.498;2022-11-15T00:19:44;100362.88;;;-0.42;50.17
65546;BME280;52177;55.968;37.498;2022-11-15T00:20:15;100369.69;;;-0.39;50.20
65546;BME280;52177;55.968;37.498;2022-11-15T00:20:45;100373.97;;;-0.38;50.07
65546;BME280;52177;55.968;37.498;2022-11-15T00:21:16;100373.34;;;-0.42;49.90
65546;BME280;52177;55.968;37.498;2022-11-15T00:21:47;100364.72;;;-0.44;49.70
65546;BME280;52177;55.968;37.498;2022-11-15T00:22:17;100365.63;;;-0.45;50.07
65546;BME280;52177;55.968;37.498;2022-11-15T00:22:47;100371.91;;;-0.48;49.95
65546;BME280;52177;55.968;37.498;2022-11-15T00:23:18;100365.91;;;-0.50;49.79
65546;BME280;52177;55.968;37.498;2022-11-15T00:23:48;100366.78;;;-0.49;49.93
65546;BME280;52177;55.968;37.498;2022-11-15T00:24:19;100364.22;;;-0.51;50.03
65546;BME280;52177;55.968;37.498;2022-11-15T00:24:49;100355.63;;;-0.53;49.91
65546;BME280;52177;55.968;37.498;2022-11-15T00:25:19;100357.28;;;-0.52;50.03
65546;BME280;52177;55.968;37.498;2022-11-15T00:25:57;100362.53;;;-0.52;49.97
65546;BME280;52177;55.968;37.498;2022-11-15T00:26:28;100357.22;;;-0.50;49.76
65546;BME280;52177;55.968;37.498;2022-11-15T00:26:58;100357.22;;;-0.50;49.79
65546;BME280;52177;55.968;37.498;2022-11-15T00:27:28;100359.00;;;-0.51;49.57
65546;BME280;52177;55.968;37.498;2022-11-15T00:28:00;100361.63;;;-0.51;49.67
65546;BME280;52177;55.968;37.498;2022-11-15T00:28:30;100365.06;;;-0.50;49.73
65546;BME280;52177;55.968;37.498;2022-11-15T00:29:01;100359.00;;;-0.51;49.80
65546;BME280;52177;55.968;37.498;2022-11-15T00:29:31;100352.81;;;-0.50;49.75
65546;BME280;52177;55.968;37.498;2022-11-15T00:30:02;100361.53;;;-0.49;49.80
65546;BME280;52177;55.968;37.498;2022-11-15T00:30:32;100363.22;;;-0.48;49.99
65546;BME280;52177;55.968;37.498;2022-11-15T00:31:05;100358.91;;;-0.49;49.98
65546;BME280;52177;55.968;37.498;2022-11-15T00:31:35;100361.34;;;-0.46;49.85
65546;BME280;52177;55.968;37.498;2022-11-15T00:32:05;100360.31;;;-0.44;49.99
65546;BME280;52177;55.968;37.498;2022-11-15T00:32:36;100361.16;;;-0.43;49.92
65546;BME280;52177;55.968;37.498;2022-11-15T00:33:06;100359.38;;;-0.43;49.99
65546;BME280;52177;55.968;37.498;2022-11-15T00:33:37;100357.63;;;-0.42;49.96
65546;BME280;52177;55.968;37.498;2022-11-15T00:34:08;100360.13;;;-0.40;49.89
65546;BME280;52177;55.968;37.498;2022-11-15T00:34:39;100358.47;;;-0.41;49.88
65546;BME280;52177;55.968;37.498;2022-11-15T00:35:09;100356.69;;;-0.41;49.87
65546;BME280;52177;55.968;37.498;2022-11-15T00:35:39;100362.75;;;-0.40;49.96
65546;BME280;52177;55.968;37.498;2022-11-15T00:36:10;100364.53;;;-0.41;49.92
65546;BME280;52177;55.968;37.498;2022-11-15T00:36:40;100356.69;;;-0.41;50.08
65546;BME280;52177;55.968;37.498;2022-11-15T00:37:11;100360.13;;;-0.40;50.12
65546;BME280;52177;55.968;37.498;2022-11-15T00:37:41;100353.09;;;-0.40;50.17
65546;BME280;52177;55.968;37.498;2022-11-15T00:38:12;100350.50;;;-0.40;50.20
65546;BME280;52177;55.968;37.498;2022-11-15T00:38:42;100348.81;;;-0.41;50.16
65546;BME280;52177;55.968;37.498;2022-11-15T00:39:12;100348.63;;;-0.38;50.16
65546;BME280;52177;55.968;37.498;2022-11-15T00:39:43;100346.75;;;-0.36;50.23
65546;BME280;52177;55.968;37.498;2022-11-15T00:40:14;100344.16;;;-0.36;50.36
65546;BME280;52177;55.968;37.498;2022-11-15T00:40:44;100346.75;;;-0.36;50.08
65546;BME280;52177;55.968;37.498;2022-11-15T00:41:15;100348.63;;;-0.38;49.88
65546;BME280;52177;55.968;37.498;2022-11-15T00:41:45;100342.63;;;-0.40;50.11
65546;BME280;52177;55.968;37.498;2022-11-15T00:42:15;100347.88;;;-0.40;50.26
65546;BME280;52177;55.968;37.498;2022-11-15T00:42:46;100337.50;;;-0.41;50.34
65546;BME280;52177;55.968;37.498;2022-11-15T00:43:16;100340.22;;;-0.43;50.39
65546;BME280;52177;55.968;37.498;2022-11-15T00:43:46;100343.66;;;-0.43;50.58
65546;BME280;52177;55.968;37.498;2022-11-15T00:44:17;100345.63;;;-0.46;50.67
65546;BME280;52177;55.968;37.498;2022-11-15T00:44:47;100339.56;;;-0.47;50.73
65546;BME280;52177;55.968;37.498;2022-11-15T00:45:17;100337.84;;;-0.48;50.81
65546;BME280;52177;55.968;37.498;2022-11-15T00:45:48;100340.47;;;-0.48;50.92
65546;BME280;52177;55.968;37.498;2022-11-15T00:46:18;100332.63;;;-0.48;50.76
65546;BME280;52177;55.968;37.498;2022-11-15T00:46:48;100336.25;;;-0.50;50.99
65546;BME280;52177;55.968;37.498;2022-11-15T00:47:19;100335.44;;;-0.51;51.01
65546;BME280;52177;55.968;37.498;2022-11-15T00:47:49;100334.59;;;-0.51;50.92
65546;BME280;52177;55.968;37.498;2022-11-15T00:48:20;100338.31;;;-0.55;51.10
65546;BME280;52177;55.968;37.498;2022-11-15T00:48:50;100338.25;;;-0.54;51.09
65546;BME280;52177;55.968;37.498;2022-11-15T00:49:20;100339.16;;;-0.55;51.16
65546;BME280;52177;55.968;37.498;2022-11-15T00:49:51;100338.25;;;-0.54;51.27
65546;BME280;52177;55.968;37.498;2022-11-15T00:50:21;100334.84;;;-0.56;51.25
65546;BME280;52177;55.968;37.498;2022-11-15T00:50:51;100334.84;;;-0.56;51.04
65546;BME280;52177;55.968;37.498;2022-11-15T00:51:22;100342.59;;;-0.54;50.97
65546;BME280;52177;55.968;37.498;2022-11-15T00:51:52;100333.06;;;-0.55;50.83
65546;BME280;52177;55.968;37.498;2022-11-15T00:52:22;100338.41;;;-0.57;50.96
65546;BME280;52177;55.968;37.498;2022-11-15T00:52:53;100337.56;;;-0.57;51.13
65546;BME280;52177;55.968;37.498;2022-11-15T00:53:23;100337.56;;;-0.57;51.08
65546;BME280;52177;55.968;37.498;2022-11-15T00:53:54;100336.72;;;-0.58;51.24
65546;BME280;52177;55.968;37.498;2022-11-15T00:54:24;100333.16;;;-0.57;51.34
65546;BME280;52177;55.968;37.498;2022-11-15T00:54:54;100336.72;;;-0.58;51.37
65546;BME280;52177;55.968;37.498;2022-11-15T00:55:25;100331.56;;;-0.59;51.37
65546;BME280;52177;55.968;37.498;2022-11-15T00:55:55;100328.88;;;-0.58;51.37
65546;BME280;52177;55.968;37.498;2022-11-15T00:56:25;100330.66;;;-0.58;51.44
65546;BME280;52177;55.968;37.498;2022-11-15T00:56:56;100331.56;;;-0.59;51.52
65546;BME280;52177;55.968;37.498;2022-11-15T00:57:26;100343.81;;;-0.60;51.50
65546;BME280;52177;55.968;37.498;2022-11-15T00:57:56;100328.31;;;-0.63;51.52
65546;BME280;52177;55.968;37.498;2022-11-15T00:58:27;100333.34;;;-0.60;51.55
65546;BME280;52177;55.968;37.498;2022-11-15T00:58:57;100330.81;;;-0.61;51.28
65546;BME280;52177;55.968;37.498;2022-11-15T00:59:28;100329.91;;;-0.60;51.46
65546;BME280;52177;55.968;37.498;2022-11-15T00:59:58;100329.13;;;-0.62;51.57
65546;BME280;52177;55.968;37.498;2022-11-15T01:00:28;100327.34;;;-0.62;51.59
65546;BME280;52177;55.968;37.498;2022-11-15T01:01:10;100330.91;;;-0.63;51.57
65546;BME280;52177;55.968;37.498;2022-11-15T01:01:41;100331.66;;;-0.61;51.76
65546;BME280;52177;55.968;37.498;2022-11-15T01:02:11;100326.59;;;-0.64;51.31
65546;BME280;52177;55.968;37.498;2022-11-15T01:02:42;100322.03;;;-0.60;51.45
65546;BME280;52177;55.968;37.498;2022-11-15T01:03:12;100327.91;;;-0.57;51.32
65546;BME280;52177;55.968;37.498;2022-11-15T01:03:42;100329.69;;;-0.57;51.17
65546;BME280;52177;55.968;37.498;2022-11-15T01:04:13;100327.09;;;-0.57;51.15
65546;BME280;52177;55.968;37.498;2022-11-15T01:04:44;100330.53;;;-0.57;51.07
65546;BME280;52177;55.968;37.498;2022-11-15T01:05:14;100324.53;;;-0.59;51.11
65546;BME280;52177;55.968;37.498;2022-11-15T01:05:45;100325.50;;;-0.60;51.17
65546;BME280;52177;55.968;37.498;2022-11-15T01:06:15;100327.34;;;-0.62;51.35
65546;BME280;52177;55.968;37.498;2022-11-15T01:06:46;100329.97;;;-0.62;51.28
65546;BME280;52177;55.968;37.498;2022-11-15T01:07:16;100322.94;;;-0.61;51.35
65546;BME280;52177;55.968;37.498;2022-11-15T01:07:46;100322.03;;;-0.60;51.33
65546;BME280;52177;55.968;37.498;2022-11-15T01:08:17;100325.41;;;-0.58;51.11
65546;BME280;52177;55.968;37.498;2022-11-15T01:08:47;100327.28;;;-0.60;51.22
65546;BME280;52177;55.968;37.498;2022-11-15T01:09:18;100325.41;;;-0.58;51.17
65546;BME280;52177;55.968;37.498;2022-11-15T01:09:48;100329.03;;;-0.61;51.06
65546;BME280;52177;55.968;37.498;2022-11-15T01:10:19;100323.72;;;-0.59;51.14
65546;BME280;52177;55.968;37.498;2022-11-15T01:10:49;100315.94;;;-0.61;50.87
65546;BME280;52177;55.968;37.498;2022-11-15T01:11:19;100315.94;;;-0.61;51.04
65546;BME280;52177;55.968;37.498;2022-11-15T01:11:50;100324.66;;;-0.60;51.16
65546;BME280;52177;55.968;37.498;2022-11-15T01:12:20;100315.00;;;-0.60;51.10
65546;BME280;52177;55.968;37.498;2022-11-15T01:12:51;100308.94;;;-0.60;51.11
65546;BME280;52177;55.968;37.498;2022-11-15T01:13:21;100310.63;;;-0.59;51.14
65546;BME280;52177;55.968;37.498;2022-11-15T01:13:51;100308.84;;;-0.59;51.15
65546;BME280;52177;55.968;37.498;2022-11-15T01:14:22;100305.31;;;-0.58;51.06
65546;BME280;52177;55.968;37.498;2022-11-15T01:14:52;100309.50;;;-0.55;51.03
65546;BME280;52177;55.968;37.498;2022-11-15T01:15:23;100306.06;;;-0.56;51.07
65546;BME280;52177;55.968;37.498;2022-11-15T01:15:53;100308.56;;;-0.54;50.87
65546;BME280;52177;55.968;37.498;2022-11-15T01:16:24;100301.66;;;-0.55;50.79
65546;BME280;52177;55.968;37.498;2022-11-15T01:16:54;100298.94;;;-0.54;50.92
65546;BME280;52177;55.968;37.498;2022-11-15T01:17:25;100305.03;;;-0.53;50.74
65546;BME280;52177;55.968;37.498;2022-11-15T01:17:55;100299.78;;;-0.53;50.74
65546;BME280;52177;55.968;37.498;2022-11-15T01:18:26;100299.03;;;-0.55;50.71
65546;BME280;52177;55.968;37.498;2022-11-15T01:18:56;100297.34;;;-0.56;50.81
65546;BME280;52177;55.968;37.498;2022-11-15T01:19:26;100299.13;;;-0.57;50.92
65546;BME280;52177;55.968;37.498;2022-11-15T01:19:57;100306.13;;;-0.57;50.85
65546;BME280;52177;55.968;37.498;2022-11-15T01:20:27;100298.34;;;-0.59;50.87
65546;BME280;52177;55.968;37.498;2022-11-15T01:20:58;100302.13;;;-0.63;50.83
65546;BME280;52177;55.968;37.498;2022-11-15T01:21:28;100299.50;;;-0.63;50.98
65546;BME280;52177;55.968;37.498;2022-11-15T01:21:59;100303.13;;;-0.66;51.03
65546;BME280;52177;55.968;37.498;2022-11-15T01:22:29;100301.44;;;-0.67;51.09
65546;BME280;52177;55.968;37.498;2022-11-15T01:22:59;100299.66;;;-0.66;51.29
65546;BME280;52177;55.968;37.498;2022-11-15T01:23:30;100301.44;;;-0.67;51.19
65546;BME280;52177;55.968;37.498;2022-11-15T01:24:00;100304.06;;;-0.67;51.42
65546;BME280;52177;55.968;37.498;2022-11-15T01:24:31;100302.28;;;-0.66;51.47
65546;BME280;52177;55.968;37.498;2022-11-15T01:25:01;100304.91;;;-0.66;51.44
65546;BME280;52177;55.968;37.498;2022-11-15T01:25:31;100304.91;;;-0.66;51.69
65546;BME280;52177;55.968;37.498;2022-11-15T01:26:05;100308.38;;;-0.66;51.60
65546;BME280;52177;55.968;37.498;2022-11-15T01:26:36;100305.84;;;-0.67;51.67
65546;BME280;52177;55.968;37.498;2022-11-15T01:27:06;100305.84;;;-0.67;51.72
65546;BME280;52177;55.968;37.498;2022-11-15T01:27:36;100305.00;;;-0.68;51.85
65546;BME280;52177;55.968;37.498;2022-11-15T01:28:07;100304.91;;;-0.66;51.94
65546;BME280;52177;55.968;37.498;2022-11-15T01:28:39;100305.75;;;-0.66;52.04
65546;BME280;52177;55.968;37.498;2022-11-15T01:29:10;100301.44;;;-0.67;52.04
65546;BME280;52177;55.968;37.498;2022-11-15T01:29:40;100312.66;;;-0.65;52.12
65546;BME280;52177;55.968;37.498;2022-11-15T01:30:11;100305.84;;;-0.67;52.10
65546;BME280;52177;55.968;37.498;2022-11-15T01:30:41;100296.19;;;-0.67;52.30
65546;BME280;52177;55.968;37.498;2022-11-15T01:31:20;100305.00;;;-0.68;52.21
65546;BME280;52177;55.968;37.498;2022-11-15T01:31:52;100301.50;;;-0.68;52.29
65546;BME280;52177;55.968;37.498;2022-11-15T01:32:23;100304.06;;;-0.67;52.37
65546;BME280;52177;55.968;37.498;2022-11-15T01:32:53;100303.97;;;-0.65;52.15
65546;BME280;52177;55.968;37.498;2022-11-15T01:33:24;100308.28;;;-0.64;52.13
65546;BME280;52177;55.968;37.498;2022-11-15T01:33:54;100303.03;;;-0.64;52.10
65546;BME280;52177;55.968;37.498;2022-11-15T01:34:25;100303.03;;;-0.64;52.18
65546;BME280;52177;55.968;37.498;2022-11-15T01:34:55;100298.63;;;-0.64;52.14
65546;BME280;52177;55.968;37.498;2022-11-15T01:35:25;100301.16;;;-0.62;52.07
65546;BME280;52177;55.968;37.498;2022-11-15T01:35:56;100304.91;;;-0.66;52.20
65546;BME280;52177;55.968;37.498;2022-11-15T01:36:26;100306.75;;;-0.68;51.99
65546;BME280;52177;55.968;37.498;2022-11-15T01:36:57;100302.19;;;-0.65;52.05
65546;BME280;52177;55.968;37.498;2022-11-15T01:37:27;100304.81;;;-0.65;52.01
65546;BME280;52177;55.968;37.498;2022-11-15T01:37:57;100296.19;;;-0.67;51.90
65546;BME280;52177;55.968;37.498;2022-11-15T01:38:28;100304.06;;;-0.67;51.96
65546;BME280;52177;55.968;37.498;2022-11-15T01:38:58;100303.31;;;-0.69;51.83
65546;BME280;52177;55.968;37.498;2022-11-15T01:39:29;100300.94;;;-0.73;51.92
65546;BME280;52177;55.968;37.498;2022-11-15T01:39:59;100296.53;;;-0.73;52.05
65546;BME280;52177;55.968;37.498;2022-11-15T01:40:30;100299.16;;;-0.73;52.34
65546;BME280;52177;55.968;37.498;2022-11-15T01:41:00;100300.03;;;-0.72;52.14
65546;BME280;52177;55.968;37.498;2022-11-15T01:41:32;100296.47;;;-0.71;52.20
65546;BME280;52177;55.968;37.498;2022-11-15T01:42:03;100298.16;;;-0.70;52.28
65546;BME280;52177;55.968;37.498;2022-11-15T01:42:34;100299.00;;;-0.70;52.32
65546;BME280;52177;55.968;37.498;2022-11-15T01:43:53;100297.91;;;-0.66;52.21
65546;BME280;52177;55.968;37.498;2022-11-15T01:45:04;100298.63;;;-0.64;52.11
65546;BME280;52177;55.968;37.498;2022-11-15T01:45:34;100296.88;;;-0.63;52.29
65546;BME280;52177;55.968;37.498;2022-11-15T01:46:50;100295.06;;;-0.77;52.59
65546;BME280;52177;55.968;37.498;2022-11-15T01:47:31;100302.06;;;-0.77;52.53
65546;BME280;52177;55.968;37.498;2022-11-15T01:48:03;100297.75;;;-0.78;52.59
65546;BME280;52177;55.968;37.498;2022-11-15T01:48:34;100303.00;;;-0.78;52.57
65546;BME280;52177;55.968;37.498;2022-11-15T01:49:11;100301.31;;;-0.79;52.83
65546;BME280;52177;55.968;37.498;2022-11-15T01:50:00;100304.84;;;-0.80;53.07
65546;BME280;52177;55.968;37.498;2022-11-15T01:50:32;100306.56;;;-0.79;53.01
65546;BME280;52177;55.968;37.498;2022-11-15T01:51:08;100303.94;;;-0.79;52.88
65546;BME280;52177;55.968;37.498;2022-11-15T01:51:39;100298.72;;;-0.79;52.77
65546;BME280;52177;55.968;37.498;2022-11-15T01:52:16;100300.47;;;-0.80;52.93
65546;BME280;52177;55.968;37.498;2022-11-15T01:52:48;100302.16;;;-0.79;53.11
65546;BME280;52177;55.968;37.498;2022-11-15T01:53:21;100298.53;;;-0.76;52.80
65546;BME280;52177;55.968;37.498;2022-11-15T01:53:55;100299.34;;;-0.76;52.76
65546;BME280;52177;55.968;37.498;2022-11-15T01:54:27;100301.06;;;-0.75;52.78
65546;BME280;52177;55.968;37.498;2022-11-15T01:55:08;100294.13;;;-0.76;52.72
65546;BME280;52177;55.968;37.498;2022-11-15T01:55:39;100295.50;;;-0.85;52.88
65546;BME280;52177;55.968;37.498;2022-11-15T01:56:14;100289.53;;;-0.87;53.03
65546;BME280;52177;55.968;37.498;2022-11-15T01:56:51;100292.03;;;-0.85;53.02
65546;BME280;52177;55.968;37.498;2022-11-15T01:57:22;100293.81;;;-0.86;53.05
65546;BME280;52177;55.968;37.498;2022-11-15T01:57:55;100292.88;;;-0.85;53.00
65546;BME280;52177;55.968;37.498;2022-11-15T01:58:26;100289.41;;;-0.85;53.12
65546;BME280;52177;55.968;37.498;2022-11-15T01:58:58;100295.59;;;-0.86;53.17
65546;BME280;52177;55.968;37.498;2022-11-15T01:59:31;100290.38;;;-0.86;53.14
65546;BME280;52177;55.968;37.498;2022-11-15T02:00:03;100294.75;;;-0.87;53.18
65546;BME280;52177;55.968;37.498;2022-11-15T02:00:35;100293.13;;;-0.89;53.33
65546;BME280;52177;55.968;37.498;2022-11-15T02:01:05;100294.00;;;-0.89;53.42
65546;BME280;52177;55.968;37.498;2022-11-15T02:01:36;100300.16;;;-0.90;53.50
65546;BME280;52177;55.968;37.498;2022-11-15T02:02:06;100294.09;;;-0.90;53.54
65546;BME280;52177;55.968;37.498;2022-11-15T02:02:37;100294.91;;;-0.90;53.53
65546;BME280;52177;55.968;37.498;2022-11-15T02:03:08;100300.16;;;-0.90;53.72
65546;BME280;52177;55.968;37.498;2022-11-15T02:03:46;100290.63;;;-0.91;53.70
65546;BME280;52177;55.968;37.498;2022-11-15T02:04:25;100301.00;;;-0.89;53.86
65546;BME280;52177;55.968;37.498;2022-11-15T02:04:57;100301.84;;;-0.89;53.86
65546;BME280;52177;55.968;37.498;2022-11-15T02:05:30;100297.47;;;-0.88;53.85
65546;BME280;52177;55.968;37.498;2022-11-15T02:06:02;100302.00;;;-0.92;53.79
65546;BME280;52177;55.968;37.498;2022-11-15T02:06:34;100300.34;;;-0.93;53.86
65546;BME280;52177;55.968;37.498;2022-11-15T02:07:08;100298.63;;;-0.94;54.08
65546;BME280;52177;55.968;37.498;2022-11-15T02:07:39;100301.38;;;-0.95;54.10
65546;BME280;52177;55.968;37.498;2022-11-15T02:08:10;100298.63;;;-0.94;54.24
65546;BME280;52177;55.968;37.498;2022-11-15T02:08:50;100296.97;;;-0.95;54.54
65546;BME280;52177;55.968;37.498;2022-11-15T02:09:21;100303.97;;;-0.95;54.41
65546;BME280;52177;55.968;37.498;2022-11-15T02:09:52;100292.69;;;-0.96;54.45
65546;BME280;52177;55.968;37.498;2022-11-15T02:10:24;100297.16;;;-0.98;54.45
65546;BME280;52177;55.968;37.498;2022-11-15T02:10:54;100298.94;;;-0.98;54.38
65546;BME280;52177;55.968;37.498;2022-11-15T02:11:25;100292.94;;;-1.00;54.46
65546;BME280;52177;55.968;37.498;2022-11-15T02:11:56;100295.72;;;-1.03;54.61
65546;BME280;52177;55.968;37.498;2022-11-15T02:12:27;100294.78;;;-1.02;54.60
65546;BME280;52177;55.968;37.498;2022-11-15T02:12:59;100294.69;;;-1.01;54.73
65546;BME280;52177;55.968;37.498;2022-11-15T02:13:30;100295.56;;;-1.00;54.55
65546;BME280;52177;55.968;37.498;2022-11-15T02:14:01;100296.38;;;-1.00;54.67
65546;BME280;52177;55.968;37.498;2022-11-15T02:14:33;100298.31;;;-1.03;54.68
65546;BME280;52177;55.968;37.498;2022-11-15T02:15:05;100294.78;;;-1.02;54.57
65546;BME280;52177;55.968;37.498;2022-11-15T02:15:41;100297.50;;;-1.04;54.79
65546;BME280;52177;55.968;37.498;2022-11-15T02:17:51;100291.59;;;-1.08;54.67
65546;BME280;52177;55.968;37.498;2022-11-15T02:18:35;100302.91;;;-1.07;54.56
65546;BME280;52177;55.968;37.498;2022-11-15T02:24:44;100287.72;;;-1.16;55.09
65546;BME280;52177;55.968;37.498;2022-11-15T02:27:53;100295.50;;;-1.15;55.12
65546;BME280;52177;55.968;37.498;2022-11-15T02:28:41;100295.41;;;-1.13;55.10
65546;BME280;52177;55.968;37.498;2022-11-15T02:29:26;100294.63;;;-1.15;55.19
65546;BME280;52177;55.968;37.498;2022-11-15T02:30:15;100296.22;;;-1.13;55.10
65546;BME280;52177;55.968;37.498;2022-11-15T02:32:03;100299.88;;;-1.15;55.28
65546;BME280;52177;55.968;37.498;2022-11-15T02:32:44;100303.44;;;-1.16;55.33
65546;BME280;52177;55.968;37.498;2022-11-15T02:34:33;100293.97;;;-1.19;55.66
65546;BME280;52177;55.968;37.498;2022-11-15T02:35:29;100283.53;;;-1.19;55.45
65546;BME280;52177;55.968;37.498;2022-11-15T02:36:57;100286.13;;;-1.19;55.56
65546;BME280;52177;55.968;37.498;2022-11-15T02:37:11;100287.91;;;-1.19;55.71
65546;BME280;52177;55.968;37.498;2022-11-15T02:37:52;100284.53;;;-1.21;55.84
65546;BME280;52177;55.968;37.498;2022-11-15T02:38:30;100292.38;;;-1.21;55.72
65546;BME280;52177;55.968;37.498;2022-11-15T02:39:10;100279.47;;;-1.24;55.68
65546;BME280;52177;55.968;37.498;2022-11-15T02:40:45;100283.94;;;-1.27;55.80
65546;BME280;52177;55.968;37.498;2022-11-15T02:41:33;100278.03;;;-1.30;56.16
65546;BME280;52177;55.968;37.498;2022-11-15T02:42:15;100279.91;;;-1.32;56.31
65546;BME280;52177;55.968;37.498;2022-11-15T02:43:18;100276.38;;;-1.31;56.26
65546;BME280;52177;55.968;37.498;2022-11-15T02:44:27;100283.19;;;-1.29;56.31
65546;BME280;52177;55.968;37.498;2022-11-15T02:45:04;100278.81;;;-1.28;56.17
65546;BME280;52177;55.968;37.498;2022-11-15T02:45:40;100282.19;;;-1.26;56.17
65546;BME280;52177;55.968;37.498;2022-11-15T02:46:18;100277.03;;;-1.28;56.03
65546;BME280;52177;55.968;37.498;2022-11-15T02:47:06;100288.25;;;-1.25;56.09
65546;BME280;52177;55.968;37.498;2022-11-15T02:47:45;100276.78;;;-1.23;56.27
65546;BME280;52177;55.968;37.498;2022-11-15T02:48:20;100283.66;;;-1.22;56.30
65546;BME280;52177;55.968;37.498;2022-11-15T02:48:52;100284.63;;;-1.23;56.31
65546;BME280;52177;55.968;37.498;2022-11-15T02:49:25;100279.47;;;-1.24;56.19
65546;BME280;52177;55.968;37.498;2022-11-15T02:50:00;100276.84;;;-1.24;56.25
65546;BME280;52177;55.968;37.498;2022-11-15T02:50:32;100276.94;;;-1.26;56.13
65546;BME280;52177;55.968;37.498;2022-11-15T02:51:03;100272.38;;;-1.22;56.06
65546;BME280;52177;55.968;37.498;2022-11-15T02:51:34;100275.00;;;-1.22;56.14
65546;BME280;52177;55.968;37.498;2022-11-15T02:52:05;100274.91;;;-1.21;56.03
65546;BME280;52177;55.968;37.498;2022-11-15T02:52:35;100269.75;;;-1.22;55.98
65546;BME280;52177;55.968;37.498;2022-11-15T02:53:07;100275.94;;;-1.23;55.95
65546;BME280;52177;55.968;37.498;2022-11-15T02:53:37;100279.38;;;-1.23;55.94
65546;BME280;52177;55.968;37.498;2022-11-15T02:54:17;100282.06;;;-1.24;55.98
65546;BME280;52177;55.968;37.498;2022-11-15T02:54:58;100284.69;;;-1.24;56.14
65546;BME280;52177;55.968;37.498;2022-11-15T02:55:33;100281.16;;;-1.23;56.01
65546;BME280;52177;55.968;37.498;2022-11-15T02:56:04;100276.84;;;-1.24;56.09
65546;BME280;52177;55.968;37.498;2022-11-15T02:56:34;100270.00;;;-1.27;56.31
65546;BME280;52177;55.968;37.498;2022-11-15T02:57:15;100274.34;;;-1.26;56.26
65546;BME280;52177;55.968;37.498;2022-11-15T02:57:57;100269.94;;;-1.25;56.29
65546;BME280;52177;55.968;37.498;2022-11-15T03:00:12;100265.47;;;-1.23;56.21
65546;BME280;52177;55.968;37.498;2022-11-15T03:01:12;100266.31;;;-1.23;56.24
65546;BME280;52177;55.968;37.498;2022-11-15T03:06:43;100256.69;;;-1.22;56.14
65546;BME280;52177;55.968;37.498;2022-11-15T03:08:08;100256.69;;;-1.22;56.38
65546;BME280;52177;55.968;37.498;2022-11-15T03:09:35;100250.44;;;-1.20;56.46
65546;BME280;52177;55.968;37.498;2022-11-15T03:10:22;100257.25;;;-1.17;56.61
65546;BME280;52177;55.968;37.498;2022-11-15T03:11:15;100252.78;;;-1.15;56.55
65546;BME280;52177;55.968;37.498;2022-11-15T03:11:50;100258.88;;;-1.15;56.25
65546;BME280;52177;55.968;37.498;2022-11-15T03:12:36;100262.34;;;-1.14;56.23